Main page
METAR-TAF:

METAR-TAF

Airports :

Shiraz International Airport

Shiraz, Iran

latitude: 29-32N, longitude: 052-35E, elevation: 1486 m

Current weather observation

The report was made 31 minutes ago, at 08:30 UTC
Calm wind
Temperature 14°C
Humidity 31%
Pressure 1022 hPa
Visibility: 6000 m

METAR: OISS 250830Z 00000KT 6000 NSC 14/M03 Q1022 A3018

Time: 12:31 (09:01 UTC)

Forecast

The report was made 3 hours and 31 minutes ago, at 05:30 UTC
Forecast valid from 25 at 06 UTC to 26 at 12 UTC
Wind 8 kt from the East/Southeast
Visibility: 7000 m
Temporary
from 26 at 01 UTC to 26 at 06 UTC
Visibility: 4000 m
haze

TAF: OISS 250530Z 2506/2612 12008KT 7000 NSC TEMPO 2601/2606 4000 HZ

Weather observations and forecasts of more than 4000 airports (METAR and TAF reports).

The available stations are represented by yellow and red dots on the map.

Hover mouse over dot to see the name of the station.

Then click to see weather observations and forecasts.

To change the map : click on the green buttons with a black cross to zoom in, on the green button with a dash to zoom out, or on the green arrows for adjacent maps.


METAR-TAF: